Ernest A. Love Field
KPRC : now visible

Airfield :











YOU CAN JOIN US ON...

 
LOGIN :

Register | Disclaimer

   EN    FR    IT 

 









Legend :    VFR   Marginal VFR   IFR   Intensive IFR   Very Intensive IFR
Visi :
Ceiling :
>= 8 km
>= 3000ft
5 to 8 km
1000 to 3000 ft
1500m to 5 km
500 to 1000 ft
800 to 1500m
200 to 500 ft
< 800m
< 200 ft
Symbols :   Thunderstorms  Fog  Heavy snow  Heavy precipitations  Wind > 20 kt






- Airport Elevation : 5045 ft
- IATA code : PRC


KPRC - Ernest A. Love Field

CURRENT METAR :
  • 150853Z AUTO 19003KT 10SM BKN085 16/15 A3015 RMK AO2 SLP139 T01610150 58005

EXPIRED METARs :
  • 150753Z AUTO 20005KT 10SM CLR 16/16 A3015 RMK AO2 SLP140 T01610156
  • 150653Z AUTO 25003KT 10SM CLR 16/16 A3017 RMK AO2 SLP143 T01610161 402560161

TAF KPRC
Valid from the 15 at 06:00 until the 16 at 06:00 UTC


150520Z 1506/1606 VRB06KT P6SM SCT060 SCT110
FM151800 28007KT P6SM VCTS BKN050CB
TEMPO 1518/1522 VRB10G20KT 4SM TSRA BKN050CB
FM160400 VRB03KT P6SM SCT060
PROB30 1604/1606 4SM TSRA BKN060CB
KZAB FIR / North America



MET'MAP, your aeronautical weather chart ! - Copyright ORBIFLY December 2007 - Disclaimer

ORBIFLY MET'MAP TEAM :

Programming & Development : Alexandra Zaïnal
Original concept : Baudouin d'Aumeries
Technical & hardware support : Manuel Goepfert
Assistance : Marc-Olivier Méhu




SOURCES & CREDITS :

   NOAA       Earth
Advisory